Galveston, TX (77550)

7:28 AM CDT on May 26, 2015 (GMT -0500)
Scholes International At Galveston | | Change Station
CLOSE
Current Station
Airport
Location: Galveston,
Elevation: 3 ft
Nearby Weather Stations

Elev 3 ft 29.27 °N, 94.86 °W | Updated 36 minutes ago

Clear
Clear
73 °F
Feels Like 73 °F
N
10
Wind Variable Wind from ENE

Today
High -- | Low -- °F
--% Chance of Precip.
Yesterday
High -- | Low -- °F
Precip. -- in
6:21 AM 8:10 PM
First Quarter, 57% visible
Pressure 30.01 in
Visibility 10.0 miles
Clouds Clear
Dew Point 69 °F
Humidity 87%
Rainfall 0.02 in
Snow Depth Not available.
UV 0 out of 12
Pollen 5.00 out of 12
Air Quality Not available.
Flu Activity Sporadic
METAR KGLS 261152Z 07009KT 10SM CLR 23/21 A3001 RMK AO2 SLP160 60002 70002 T02280206 10233 20206 53007

More Conditions Fewer Conditions

Pressure 30.01 in
Visibility 10.0 miles
Clouds Clear
Dew Point 69 °F
Humidity 87%
Rainfall 0.02 in
Snow Depth Not available.
UV 0 out of 12
Pollen 5.00 out of 12
Air Quality Not available.
Flu Activity Sporadic
METAR KGLS 261152Z 07009KT 10SM CLR 23/21 A3001 RMK AO2 SLP160 60002 70002 T02280206 10233 20206 53007

More Conditions Fewer Conditions

10-Day Weather Forecast

Almanac

Astronomy

May. 26, 2015 Rise Set
Actual Time
Civil Twilight
Nautical Twilight
Astronomical Twilight
Moon
Length of Visible Light
Length of Day
Tomorrow will be .
, % of the Moon is Illuminated

Today's Extremes

State Highs State Lows

Community

WunderPhotos

Upload Photos

1,824,326 photos uploaded!

WunderBlogs® & News

Nearby

Air Quality

  Air Quality AQ Index Pollutant
Not available.

Snow Depth

Station Depth Elevation

Earthquake Activity

City Distance Mag. Time & Date
Minimum magnitude displayed is 2.5.

Coastal Water Temperatures

Place Temperature

Stations

Nearby Weather Stations

Station Location Temp. Windchill Dew Point Humidity Wind Precip. Elev Updated Type